Terminal Aerodrome Forecast
Issued by NWS

Home | Current Version | Previous Version | Text Only | Print | Product List | Glossary On
Versions: 1 2 3 4 5 6 7 8 9 10 11 12 13
000
FTUS45 KRIW 012300
TAFWRL
TAF
KWRL 012327Z 0200/0224 VRB05KT P6SM SCT060 BKN090
     FM020300 VRB05KT P6SM FEW100
     FM022100 35014KT P6SM SCT040=

USA.gov is the U.S. government's official web portal to all federal, state and local government web resources and services.